Time;durP1;ratioP1;P1;durP2;ratioP2;P2;SDS_P1;SDS_P2;PMS_P1;PMS_P2;Temp;Humidity;BMP_temperature;BMP_pressure;BME280_temperature;BME280_humidity;BME280_pressure;Samples;Min_cycle;Max_cycle;Signal;HPM_P1;HPM_P2
2023/05/04 00:00:57;;;;;;;10.73;9.70;;;;;;;;;;5024591;28;20637;-63
2023/05/04 00:03:24;;;;;;;10.43;9.43;;;;;;;;;;5019219;28;20243;-66
2023/05/04 00:05:52;;;;;;;12.13;10.00;;;;;;;;;;5024343;28;20234;-66
2023/05/04 00:08:19;;;;;;;10.47;9.47;;;;;;;;;;5021704;28;20218;-63
2023/05/04 00:10:47;;;;;;;11.00;9.60;;;;;;;;;;5028506;28;20289;-65
2023/05/04 00:13:14;;;;;;;11.60;10.00;;;;;;;;;;5022612;28;20567;-66
2023/05/04 00:15:42;;;;;;;12.10;10.67;;;;;;;;;;5023008;28;20740;-65
2023/05/04 00:18:09;;;;;;;13.73;10.53;;;;;;;;;;5022034;28;20230;-64
2023/05/04 00:20:37;;;;;;;11.97;10.77;;;;;;;;;;5021805;28;20203;-65
2023/05/04 00:23:04;;;;;;;11.53;10.43;;;;;;;;;;5045422;28;20379;-64
2023/05/04 00:25:31;;;;;;;11.07;9.93;;;;;;;;;;5028455;28;20218;-65
2023/05/04 00:27:59;;;;;;;13.50;11.40;;;;;;;;;;5023451;28;20211;-65
2023/05/04 00:30:26;;;;;;;14.63;12.27;;;;;;;;;;5030898;28;20206;-64
2023/05/04 00:32:53;;;;;;;16.83;14.17;;;;;;;;;;5044537;28;20219;-65
2023/05/04 00:35:21;;;;;;;14.57;12.00;;;;;;;;;;5028812;28;20302;-65
2023/05/04 00:37:48;;;;;;;14.40;12.70;;;;;;;;;;5022343;28;20325;-65
2023/05/04 00:40:16;;;;;;;14.23;12.83;;;;;;;;;;5022096;28;20207;-65
2023/05/04 00:42:43;;;;;;;14.17;12.63;;;;;;;;;;5022590;28;20330;-64
2023/05/04 00:45:11;;;;;;;14.67;12.60;;;;;;;;;;5040228;28;20463;-63
2023/05/04 00:47:38;;;;;;;16.37;14.27;;;;;;;;;;5021137;28;20550;-64
2023/05/04 00:50:06;;;;;;;15.17;13.20;;;;;;;;;;5026212;28;20206;-65
2023/05/04 00:52:34;;;;;;;15.77;13.40;;;;;;;;;;5019815;28;20217;-65
2023/05/04 00:55:01;;;;;;;14.17;12.77;;;;;;;;;;5035481;28;20202;-66
2023/05/04 00:57:29;;;;;;;15.37;13.30;;;;;;;;;;5018020;28;20273;-64
2023/05/04 00:59:56;;;;;;;16.43;14.03;;;;;;;;;;5024935;28;20207;-65
2023/05/04 01:02:23;;;;;;;15.40;13.43;;;;;;;;;;5018875;28;20306;-65
2023/05/04 01:04:51;;;;;;;16.00;14.30;;;;;;;;;;5036252;28;20686;-65
2023/05/04 01:07:27;;;;;;;14.97;13.40;;;;;;;;;;5031874;28;20683;-65
2023/05/04 01:10:04;;;;;;;15.93;13.43;;;;;;;;;;5021926;28;20206;-65
2023/05/04 01:12:32;;;;;;;16.83;14.07;;;;;;;;;;5025314;28;20199;-66
2023/05/04 01:15:00;;;;;;;16.13;13.53;;;;;;;;;;5017997;28;20198;-62
2023/05/04 01:17:27;;;;;;;17.40;14.67;;;;;;;;;;5023721;28;20227;-63
2023/05/04 01:19:55;;;;;;;15.43;13.83;;;;;;;;;;5014115;28;20209;-66
2023/05/04 01:22:22;;;;;;;15.47;13.87;;;;;;;;;;5008602;28;20217;-65
2023/05/04 01:24:50;;;;;;;16.93;15.17;;;;;;;;;;5020256;28;20218;-64
2023/05/04 01:27:28;;;;;;;17.13;15.13;;;;;;;;;;5020705;28;20298;-65
2023/05/04 01:29:58;;;;;;;17.33;15.53;;;;;;;;;;5018870;28;20648;-65
2023/05/04 01:32:28;;;;;;;19.43;15.90;;;;;;;;;;5023402;28;20223;-62
2023/05/04 01:34:56;;;;;;;17.80;15.73;;;;;;;;;;5020259;28;20234;-65
2023/05/04 01:37:23;;;;;;;17.27;14.80;;;;;;;;;;5002197;28;20231;-66
2023/05/04 01:39:51;;;;;;;19.37;16.20;;;;;;;;;;5016917;28;20294;-64
2023/05/04 01:42:18;;;;;;;20.03;16.90;;;;;;;;;;5021275;28;20570;-65
2023/05/04 01:44:46;;;;;;;18.83;16.43;;;;;;;;;;5019601;28;20215;-66
2023/05/04 01:47:13;;;;;;;20.70;16.47;;;;;;;;;;5024250;28;20215;-66
2023/05/04 01:49:41;;;;;;;19.03;16.73;;;;;;;;;;5019396;28;20229;-65
2023/05/04 01:52:08;;;;;;;19.57;16.20;;;;;;;;;;5029665;28;20215;-66
2023/05/04 01:54:35;;;;;;;18.43;16.37;;;;;;;;;;5022791;28;20202;-65
2023/05/04 01:57:03;;;;;;;18.53;16.53;;;;;;;;;;5019669;28;20304;-65
2023/05/04 01:59:30;;;;;;;18.50;15.73;;;;;;;;;;5037929;28;20302;-64
2023/05/04 02:01:57;;;;;;;20.47;16.87;;;;;;;;;;5017883;28;20206;-64
2023/05/04 02:04:25;;;;;;;20.57;17.13;;;;;;;;;;5025091;28;20265;-64
2023/05/04 02:06:52;;;;;;;21.80;18.23;;;;;;;;;;5016946;28;20409;-64
2023/05/04 02:09:20;;;;;;;22.20;17.23;;;;;;;;;;5023663;28;20218;-63
2023/05/04 02:11:47;;;;;;;20.00;17.83;;;;;;;;;;5014415;28;20559;-64
2023/05/04 02:14:15;;;;;;;19.33;16.97;;;;;;;;;;5022554;28;20207;-65
2023/05/04 02:16:43;;;;;;;21.60;18.13;;;;;;;;;;5030677;28;20230;-63
2023/05/04 02:19:10;;;;;;;20.63;18.13;;;;;;;;;;5037043;28;20326;-66
2023/05/04 02:21:37;;;;;;;23.27;18.77;;;;;;;;;;5015739;28;20261;-64
2023/05/04 02:24:05;;;;;;;23.53;18.90;;;;;;;;;;5026307;28;20298;-64
2023/05/04 02:26:33;;;;;;;22.43;19.13;;;;;;;;;;5023812;28;20215;-65
2023/05/04 02:29:04;;;;;;;22.53;19.60;;;;;;;;;;5022569;28;20214;-64
2023/05/04 02:31:33;;;;;;;24.00;19.70;;;;;;;;;;5025674;28;20222;-66
2023/05/04 02:34:01;;;;;;;24.17;18.63;;;;;;;;;;5025162;28;20284;-63
2023/05/04 02:36:28;;;;;;;23.90;20.20;;;;;;;;;;5024650;28;20229;-64
2023/05/04 02:38:59;;;;;;;24.57;19.53;;;;;;;;;;5039548;28;20234;-64
2023/05/04 02:41:27;;;;;;;23.47;19.23;;;;;;;;;;5023028;28;20218;-64
2023/05/04 02:43:55;;;;;;;27.53;20.63;;;;;;;;;;5016826;28;20217;-65
2023/05/04 02:46:24;;;;;;;25.30;20.27;;;;;;;;;;5014474;28;20222;-65
2023/05/04 02:48:51;;;;;;;24.60;19.07;;;;;;;;;;5033766;28;20649;-66
2023/05/04 02:51:19;;;;;;;25.77;19.93;;;;;;;;;;5019331;28;20298;-64
2023/05/04 02:53:47;;;;;;;26.60;21.30;;;;;;;;;;5022905;28;20682;-65
2023/05/04 02:56:14;;;;;;;25.30;20.27;;;;;;;;;;5025631;28;20317;-64
2023/05/04 02:58:42;;;;;;;24.33;20.23;;;;;;;;;;5024982;28;20227;-65
2023/05/04 03:01:09;;;;;;;24.80;20.83;;;;;;;;;;5024321;28;20203;-65
2023/05/04 03:03:37;;;;;;;23.23;19.73;;;;;;;;;;5021702;28;20207;-66
2023/05/04 03:06:04;;;;;;;25.30;20.87;;;;;;;;;;5022026;28;20219;-66
2023/05/04 03:08:32;;;;;;;25.53;20.97;;;;;;;;;;5021417;28;20206;-64
2023/05/04 03:10:59;;;;;;;26.87;20.30;;;;;;;;;;5040664;28;20210;-64
2023/05/04 03:13:27;;;;;;;24.30;20.60;;;;;;;;;;5018648;28;20203;-64
2023/05/04 03:15:54;;;;;;;24.77;21.17;;;;;;;;;;5018173;28;20234;-66
2023/05/04 03:18:22;;;;;;;26.80;20.97;;;;;;;;;;5018836;28;20626;-64
2023/05/04 03:20:49;;;;;;;26.70;20.53;;;;;;;;;;5023495;28;20206;-65
2023/05/04 03:23:17;;;;;;;25.43;20.57;;;;;;;;;;5014896;28;20211;-67
2023/05/04 03:25:45;;;;;;;24.17;20.67;;;;;;;;;;5018523;28;20238;-63
2023/05/04 03:28:12;;;;;;;25.20;20.43;;;;;;;;;;5012212;28;20257;-63
2023/05/04 03:30:39;;;;;;;25.43;20.03;;;;;;;;;;5034533;28;20238;-66
2023/05/04 03:33:07;;;;;;;24.60;20.03;;;;;;;;;;5031396;28;20746;-63
2023/05/04 03:35:35;;;;;;;25.60;20.97;;;;;;;;;;5015926;28;20296;-66
2023/05/04 03:38:02;;;;;;;24.60;20.07;;;;;;;;;;5038517;28;20226;-64
2023/05/04 03:40:30;;;;;;;25.10;20.27;;;;;;;;;;5038814;28;20225;-64
2023/05/04 03:42:57;;;;;;;26.53;21.60;;;;;;;;;;5025532;28;20652;-65
2023/05/04 03:45:27;;;;;;;25.87;20.40;;;;;;;;;;5025005;28;20250;-66
2023/05/04 03:47:55;;;;;;;27.10;20.90;;;;;;;;;;5043981;28;20230;-65
2023/05/04 03:50:22;;;;;;;26.50;20.67;;;;;;;;;;5034763;28;20207;-65
2023/05/04 03:52:50;;;;;;;26.40;20.40;;;;;;;;;;5025921;28;20225;-66
2023/05/04 03:55:18;;;;;;;25.77;20.90;;;;;;;;;;5025892;28;20310;-66
2023/05/04 03:57:45;;;;;;;26.43;20.33;;;;;;;;;;5025050;28;20238;-66
2023/05/04 04:00:13;;;;;;;25.53;20.07;;;;;;;;;;5022953;28;20245;-65
2023/05/04 04:02:40;;;;;;;24.27;19.77;;;;;;;;;;5025381;28;20289;-65
2023/05/04 04:05:08;;;;;;;24.67;19.07;;;;;;;;;;5029416;28;20223;-64
2023/05/04 04:07:36;;;;;;;23.80;19.70;;;;;;;;;;5019884;28;20274;-64
2023/05/04 04:10:09;;;;;;;25.90;21.13;;;;;;;;;;5023955;28;20210;-64
2023/05/04 04:12:36;;;;;;;25.53;21.23;;;;;;;;;;5025144;28;20257;-65
2023/05/04 04:15:04;;;;;;;24.63;19.67;;;;;;;;;;5030999;28;20235;-64
2023/05/04 04:17:31;;;;;;;25.47;19.57;;;;;;;;;;5026227;28;20239;-66
2023/05/04 04:19:59;;;;;;;24.03;20.13;;;;;;;;;;5035695;28;20374;-65
2023/05/04 04:22:26;;;;;;;23.13;18.73;;;;;;;;;;5027985;28;20230;-64
2023/05/04 04:24:53;;;;;;;25.10;19.67;;;;;;;;;;5044745;28;20641;-66
2023/05/04 04:27:21;;;;;;;24.43;19.77;;;;;;;;;;5029002;28;20354;-64
2023/05/04 04:29:48;;;;;;;25.00;19.27;;;;;;;;;;5030598;28;20206;-66
2023/05/04 04:32:15;;;;;;;23.70;18.67;;;;;;;;;;5033010;28;20219;-65
2023/05/04 04:34:43;;;;;;;23.00;20.03;;;;;;;;;;5047214;28;20233;-65
2023/05/04 04:37:11;;;;;;;23.23;19.53;;;;;;;;;;5026323;28;20257;-64
2023/05/04 04:39:38;;;;;;;24.60;19.77;;;;;;;;;;5031570;28;20223;-64
2023/05/04 04:42:06;;;;;;;25.57;19.63;;;;;;;;;;5028282;28;20298;-63
2023/05/04 04:44:33;;;;;;;24.03;18.73;;;;;;;;;;5031399;28;20199;-64
2023/05/04 04:47:01;;;;;;;22.60;18.23;;;;;;;;;;5043126;28;20234;-65
2023/05/04 04:49:29;;;;;;;22.87;18.87;;;;;;;;;;5034293;28;20303;-65
2023/05/04 04:51:57;;;;;;;23.83;19.07;;;;;;;;;;5027476;28;20238;-65
2023/05/04 04:54:26;;;;;;;23.37;19.47;;;;;;;;;;5030051;28;20755;-65
2023/05/04 04:56:53;;;;;;;21.43;18.53;;;;;;;;;;5024893;28;20272;-63
2023/05/04 04:59:23;;;;;;;21.73;18.50;;;;;;;;;;5028948;28;20234;-64
2023/05/04 05:01:51;;;;;;;23.33;18.73;;;;;;;;;;5037183;28;20293;-63
2023/05/04 05:04:20;;;;;;;24.77;19.57;;;;;;;;;;5026807;28;20202;-64
2023/05/04 05:06:48;;;;;;;20.87;17.33;;;;;;;;;;5045471;28;20310;-66
2023/05/04 05:09:15;;;;;;;20.53;17.67;;;;;;;;;;5027934;28;20583;-65
2023/05/04 05:11:43;;;;;;;21.93;17.67;;;;;;;;;;5023387;28;20233;-66
2023/05/04 05:14:11;;;;;;;21.13;17.70;;;;;;;;;;5019478;28;20245;-66
2023/05/04 05:16:38;;;;;;;21.97;17.87;;;;;;;;;;5015648;28;20226;-65
2023/05/04 05:19:05;;;;;;;23.03;18.00;;;;;;;;;;5023624;28;21777;-66
2023/05/04 05:21:33;;;;;;;22.33;18.10;;;;;;;;;;5025540;28;20290;-64
2023/05/04 05:24:01;;;;;;;20.00;16.80;;;;;;;;;;5025986;28;20214;-65
2023/05/04 05:26:29;;;;;;;20.37;18.17;;;;;;;;;;5021053;28;20358;-65
2023/05/04 05:28:56;;;;;;;18.80;16.77;;;;;;;;;;5020795;28;20401;-63
2023/05/04 05:31:24;;;;;;;18.27;14.93;;;;;;;;;;5021557;28;20609;-65
2023/05/04 05:33:52;;;;;;;14.67;13.27;;;;;;;;;;5055799;28;20414;-67
2023/05/04 05:36:20;;;;;;;13.52;12.15;;;;;;;;;;5022759;28;20250;-66
2023/05/04 05:38:47;;;;;;;11.73;10.52;;;;;;;;;;5018763;28;20225;-65
2023/05/04 05:41:16;;;;;;;11.60;10.18;;;;;;;;;;5029213;28;20294;-64
2023/05/04 05:43:44;;;;;;;12.00;10.82;;;;;;;;;;5023400;28;20199;-66
2023/05/04 05:46:11;;;;;;;11.50;10.00;;;;;;;;;;5029276;28;20203;-65
2023/05/04 05:48:39;;;;;;;10.45;9.45;;;;;;;;;;5023374;28;20627;-65
2023/05/04 05:51:06;;;;;;;10.00;9.10;;;;;;;;;;5030307;28;20257;-66
2023/05/04 05:53:34;;;;;;;10.57;9.55;;;;;;;;;;5020854;28;20288;-66
2023/05/04 05:56:01;;;;;;;9.80;8.95;;;;;;;;;;5030713;28;20675;-65
2023/05/04 05:58:29;;;;;;;11.00;10.00;;;;;;;;;;5022348;28;20656;-66
2023/05/04 06:00:56;;;;;;;10.65;9.70;;;;;;;;;;5020881;28;20237;-65
2023/05/04 06:03:24;;;;;;;11.25;10.25;;;;;;;;;;5023375;28;20223;-64
2023/05/04 06:05:51;;;;;;;11.27;9.95;;;;;;;;;;5021749;28;20227;-66
2023/05/04 06:08:19;;;;;;;12.20;11.05;;;;;;;;;;5028669;28;20211;-65
2023/05/04 06:10:47;;;;;;;9.85;9.00;;;;;;;;;;5025397;28;20246;-65
2023/05/04 06:13:15;;;;;;;12.32;11.13;;;;;;;;;;5018898;28;20779;-66
2023/05/04 06:15:49;;;;;;;12.63;11.35;;;;;;;;;;5021684;28;20227;-65
2023/05/04 06:18:17;;;;;;;11.88;10.77;;;;;;;;;;5028702;28;20230;-64
2023/05/04 06:20:44;;;;;;;12.93;11.52;;;;;;;;;;5027114;28;20203;-64
2023/05/04 06:23:13;;;;;;;11.65;10.50;;;;;;;;;;5032236;28;20290;-65
2023/05/04 06:25:41;;;;;;;13.50;11.27;;;;;;;;;;5028247;28;20222;-65
2023/05/04 06:28:08;;;;;;;12.43;11.13;;;;;;;;;;5025070;28;20253;-65
2023/05/04 06:30:36;;;;;;;13.75;11.77;;;;;;;;;;5037439;28;20206;-66
2023/05/04 06:33:03;;;;;;;11.93;10.77;;;;;;;;;;5021357;28;20222;-65
2023/05/04 06:35:32;;;;;;;12.48;11.18;;;;;;;;;;5025249;28;20226;-64
2023/05/04 06:37:59;;;;;;;13.05;11.48;;;;;;;;;;5020877;28;20679;-65
2023/05/04 06:40:27;;;;;;;14.82;11.77;;;;;;;;;;5022774;28;20211;-65
2023/05/04 06:42:54;;;;;;;11.87;10.73;;;;;;;;;;5020367;28;20215;-65
2023/05/04 06:45:22;;;;;;;12.17;10.80;;;;;;;;;;5023630;28;20215;-64
2023/05/04 06:47:49;;;;;;;12.88;10.38;;;;;;;;;;5021812;28;20477;-65
2023/05/04 06:50:16;;;;;;;12.75;11.48;;;;;;;;;;5023397;28;20210;-65
2023/05/04 06:52:45;;;;;;;13.35;12.05;;;;;;;;;;5016749;28;20580;-65
2023/05/04 06:55:12;;;;;;;13.63;12.23;;;;;;;;;;5028121;28;20238;-65
2023/05/04 06:57:40;;;;;;;13.30;11.88;;;;;;;;;;5025152;28;20203;-66
2023/05/04 07:00:07;;;;;;;12.85;11.40;;;;;;;;;;5015548;28;20858;-64
2023/05/04 07:02:35;;;;;;;12.93;11.73;;;;;;;;;;5015535;28;20202;-65
2023/05/04 07:05:03;;;;;;;13.40;12.00;;;;;;;;;;5040635;28;20276;-66
2023/05/04 07:07:30;;;;;;;12.43;11.23;;;;;;;;;;5014954;28;20209;-65
2023/05/04 07:09:57;;;;;;;13.00;11.68;;;;;;;;;;5018685;28;20219;-65
2023/05/04 07:12:25;;;;;;;11.60;10.43;;;;;;;;;;5029787;28;20747;-64
2023/05/04 07:14:52;;;;;;;13.15;11.85;;;;;;;;;;5021674;28;20313;-65
2023/05/04 07:17:20;;;;;;;11.57;10.57;;;;;;;;;;5035500;28;20313;-66
2023/05/04 07:19:51;;;;;;;12.13;10.93;;;;;;;;;;5024162;28;20652;-64
2023/05/04 07:22:19;;;;;;;12.23;11.02;;;;;;;;;;5025833;28;20249;-65
2023/05/04 07:24:47;;;;;;;12.05;10.85;;;;;;;;;;5025786;28;20650;-63
2023/05/04 07:27:14;;;;;;;12.55;11.27;;;;;;;;;;5020717;28;20282;-66
2023/05/04 07:29:41;;;;;;;11.98;10.77;;;;;;;;;;5018295;28;20670;-66
2023/05/04 07:32:09;;;;;;;10.85;9.65;;;;;;;;;;5022163;28;20251;-65
2023/05/04 07:34:36;;;;;;;10.68;9.57;;;;;;;;;;5016041;28;20211;-65
2023/05/04 07:37:12;;;;;;;9.88;8.88;;;;;;;;;;5023118;28;20198;-64
2023/05/04 07:39:40;;;;;;;12.77;9.13;;;;;;;;;;5023655;28;20586;-64
2023/05/04 07:42:08;;;;;;;11.15;9.65;;;;;;;;;;5024173;28;20262;-62
2023/05/04 07:44:36;;;;;;;9.47;8.57;;;;;;;;;;5035430;28;20211;-64
2023/05/04 07:47:03;;;;;;;10.57;8.55;;;;;;;;;;5024275;28;20342;-65
2023/05/04 07:49:30;;;;;;;9.00;8.10;;;;;;;;;;5023397;28;20292;-65
2023/05/04 07:51:59;;;;;;;8.32;7.63;;;;;;;;;;5019765;28;20211;-64
2023/05/04 07:54:27;;;;;;;8.70;7.90;;;;;;;;;;5025082;28;20203;-65
2023/05/04 07:56:54;;;;;;;8.18;7.38;;;;;;;;;;5019704;28;20726;-66
2023/05/04 07:59:22;;;;;;;8.52;7.72;;;;;;;;;;5029388;28;20689;-65
2023/05/04 08:01:49;;;;;;;12.68;7.65;;;;;;;;;;5020074;28;20737;-65
2023/05/04 08:04:17;;;;;;;7.78;7.07;;;;;;;;;;5029967;28;20585;-64
2023/05/04 08:06:45;;;;;;;8.02;7.18;;;;;;;;;;5015709;28;20223;-64
2023/05/04 08:09:12;;;;;;;8.50;7.60;;;;;;;;;;5018209;28;20268;-65
2023/05/04 08:11:40;;;;;;;7.75;7.05;;;;;;;;;;5015575;28;20216;-66
2023/05/04 08:14:08;;;;;;;7.90;7.10;;;;;;;;;;5018354;28;20673;-66
2023/05/04 08:16:35;;;;;;;7.25;6.65;;;;;;;;;;5021552;28;20411;-64
2023/05/04 08:19:03;;;;;;;7.97;6.50;;;;;;;;;;5023454;28;20658;-65
2023/05/04 08:21:31;;;;;;;6.95;6.35;;;;;;;;;;5025159;28;20218;-65
2023/05/04 08:23:58;;;;;;;6.68;6.07;;;;;;;;;;5029490;28;20207;-65
2023/05/04 08:26:26;;;;;;;7.20;6.50;;;;;;;;;;5030454;28;20780;-65
2023/05/04 08:29:04;;;;;;;6.60;6.00;;;;;;;;;;5030183;28;20210;-65
2023/05/04 08:31:31;;;;;;;7.00;6.30;;;;;;;;;;5031655;28;20203;-65
2023/05/04 08:33:59;;;;;;;7.72;7.00;;;;;;;;;;5029540;28;20217;-63
2023/05/04 08:36:27;;;;;;;5.88;5.38;;;;;;;;;;5026187;28;20287;-65
2023/05/04 08:38:56;;;;;;;6.78;6.20;;;;;;;;;;5062677;28;20626;-65
2023/05/04 08:41:24;;;;;;;9.35;5.47;;;;;;;;;;5030926;28;20286;-66
2023/05/04 08:43:51;;;;;;;5.45;5.05;;;;;;;;;;5031810;28;20217;-65
2023/05/04 08:46:19;;;;;;;5.35;4.95;;;;;;;;;;5030430;28;20231;-65
2023/05/04 08:48:46;;;;;;;5.93;5.40;;;;;;;;;;5025268;28;20199;-65
2023/05/04 08:51:14;;;;;;;7.43;5.72;;;;;;;;;;5051963;28;20322;-63
2023/05/04 08:53:44;;;;;;;6.90;6.18;;;;;;;;;;5027032;28;20200;-67
2023/05/04 08:56:13;;;;;;;6.57;5.97;;;;;;;;;;5028148;28;20237;-65
2023/05/04 08:58:51;;;;;;;6.82;5.35;;;;;;;;;;5025009;28;20850;-66
2023/05/04 09:01:19;;;;;;;6.30;5.70;;;;;;;;;;5028953;28;20298;-67
2023/05/04 09:03:47;;;;;;;6.25;5.65;;;;;;;;;;5026942;28;20608;-68
2023/05/04 09:06:15;;;;;;;6.40;5.80;;;;;;;;;;5031468;28;20594;-66
2023/05/04 09:08:43;;;;;;;6.18;5.55;;;;;;;;;;5027710;28;20200;-65
2023/05/04 09:11:12;;;;;;;6.25;5.65;;;;;;;;;;5032668;28;20202;-65
2023/05/04 09:13:41;;;;;;;5.32;4.75;;;;;;;;;;5029207;28;20207;-66
2023/05/04 09:16:09;;;;;;;5.00;4.50;;;;;;;;;;5027434;28;20597;-64
2023/05/04 09:18:41;;;;;;;5.25;4.68;;;;;;;;;;5029445;28;20587;-65
2023/05/04 09:21:10;;;;;;;4.32;4.03;;;;;;;;;;5028829;28;20207;-63
2023/05/04 09:23:49;;;;;;;4.82;4.43;;;;;;;;;;5039033;28;20281;-65
2023/05/04 09:26:33;;;;;;;5.13;4.63;;;;;;;;;;5023114;28;20320;-66
2023/05/04 09:29:12;;;;;;;5.50;5.00;;;;;;;;;;5039068;28;20235;-66
2023/05/04 09:31:42;;;;;;;4.32;3.92;;;;;;;;;;5027487;28;20613;-64
2023/05/04 09:34:10;;;;;;;6.13;5.53;;;;;;;;;;5017772;28;20684;-65
2023/05/04 09:36:37;;;;;;;6.53;5.93;;;;;;;;;;5003677;28;20227;-65
2023/05/04 09:39:12;;;;;;;5.85;5.00;;;;;;;;;;5026454;28;20329;-66
2023/05/04 09:41:40;;;;;;;5.15;4.70;;;;;;;;;;5018056;28;20202;-67
2023/05/04 09:44:17;;;;;;;4.70;4.18;;;;;;;;;;5015836;28;20262;-66
2023/05/04 09:46:54;;;;;;;4.45;4.05;;;;;;;;;;5040345;28;20285;-66
2023/05/04 09:49:35;;;;;;;4.82;4.28;;;;;;;;;;5028682;28;20630;-66
2023/05/04 09:52:04;;;;;;;6.13;4.07;;;;;;;;;;5023150;28;20203;-65
2023/05/04 09:54:33;;;;;;;5.47;4.75;;;;;;;;;;5022863;28;20313;-66
2023/05/04 09:57:10;;;;;;;4.60;4.20;;;;;;;;;;5019205;28;20265;-65
2023/05/04 09:59:38;;;;;;;5.30;4.90;;;;;;;;;;5018044;28;20321;-65
2023/05/04 10:02:06;;;;;;;5.95;5.35;;;;;;;;;;5028754;28;20668;-67
2023/05/04 10:04:49;;;;;;;7.05;6.35;;;;;;;;;;5030189;28;20203;-66
2023/05/04 10:07:17;;;;;;;7.07;6.38;;;;;;;;;;5019094;28;20202;-64
2023/05/04 10:09:48;;;;;;;9.38;6.40;;;;;;;;;;5044253;28;20207;-66
2023/05/04 10:12:15;;;;;;;5.72;5.22;;;;;;;;;;5028175;28;20209;-65
2023/05/04 10:14:45;;;;;;;5.93;5.43;;;;;;;;;;5026572;28;20229;-65
2023/05/04 10:17:21;;;;;;;7.28;6.60;;;;;;;;;;5030328;28;20206;-66
2023/05/04 10:20:06;;;;;;;7.72;7.13;;;;;;;;;;5028707;28;20273;-66
2023/05/04 10:22:49;;;;;;;8.55;7.65;;;;;;;;;;5028891;28;20613;-65
2023/05/04 10:25:35;;;;;;;6.45;5.95;;;;;;;;;;5026956;28;20262;-64
2023/05/04 10:28:15;;;;;;;6.50;5.95;;;;;;;;;;5016802;28;20236;-65
2023/05/04 10:30:43;;;;;;;6.07;5.47;;;;;;;;;;5009244;28;20211;-65
2023/05/04 10:33:12;;;;;;;7.60;6.78;;;;;;;;;;5027457;28;20226;-65
2023/05/04 10:35:59;;;;;;;6.32;5.68;;;;;;;;;;5034575;28;20246;-64
2023/05/04 10:38:34;;;;;;;6.45;5.72;;;;;;;;;;5039697;28;20207;-65
2023/05/04 10:41:12;;;;;;;7.30;6.57;;;;;;;;;;5027191;28;20257;-64
2023/05/04 10:43:41;;;;;;;5.90;5.28;;;;;;;;;;5022489;28;20766;-65
2023/05/04 10:46:18;;;;;;;4.53;4.13;;;;;;;;;;5026778;28;20593;-65
2023/05/04 10:48:46;;;;;;;6.13;5.60;;;;;;;;;;5028551;28;20214;-64
2023/05/04 10:51:26;;;;;;;7.15;6.55;;;;;;;;;;5029276;28;20235;-64
2023/05/04 10:54:17;;;;;;;6.30;5.80;;;;;;;;;;5026071;28;20293;-64
2023/05/04 10:56:45;;;;;;;5.57;5.07;;;;;;;;;;5036493;28;20237;-64
2023/05/04 10:59:13;;;;;;;7.68;6.97;;;;;;;;;;5017649;28;20203;-64
2023/05/04 11:01:46;;;;;;;7.40;6.80;;;;;;;;;;5023742;28;20205;-64
2023/05/04 11:04:22;;;;;;;7.38;6.30;;;;;;;;;;5001963;28;20251;-64
2023/05/04 11:07:04;;;;;;;8.13;7.38;;;;;;;;;;5020500;28;20593;-66
2023/05/04 11:09:43;;;;;;;9.88;8.05;;;;;;;;;;5023732;28;20203;-65
2023/05/04 11:12:14;;;;;;;9.65;8.65;;;;;;;;;;5028627;28;20211;-65
2023/05/04 11:14:41;;;;;;;9.20;8.40;;;;;;;;;;5036476;28;20199;-65
2023/05/04 11:17:10;;;;;;;8.20;7.45;;;;;;;;;;5027595;28;20226;-64
2023/05/04 11:19:53;;;;;;;8.52;7.70;;;;;;;;;;5031893;28;20613;-64
2023/05/04 11:22:21;;;;;;;8.95;8.07;;;;;;;;;;5026176;28;20256;-65
2023/05/04 11:24:48;;;;;;;9.90;8.48;;;;;;;;;;5048185;28;20211;-65
2023/05/04 11:27:23;;;;;;;8.43;7.40;;;;;;;;;;5032482;28;20363;-64
2023/05/04 11:29:55;;;;;;;6.40;5.87;;;;;;;;;;5025663;28;20241;-65
2023/05/04 11:32:32;;;;;;;10.23;8.90;;;;;;;;;;5030775;28;20214;-65
2023/05/04 11:35:00;;;;;;;9.20;8.30;;;;;;;;;;5027832;28;20210;-64
2023/05/04 11:37:29;;;;;;;7.40;6.55;;;;;;;;;;5026812;28;20339;-65
2023/05/04 11:39:57;;;;;;;6.97;6.28;;;;;;;;;;5031332;28;20284;-64
2023/05/04 11:42:25;;;;;;;6.97;6.28;;;;;;;;;;5028052;28;21143;-64
2023/05/04 11:44:54;;;;;;;7.00;6.30;;;;;;;;;;5032356;28;20265;-65
2023/05/04 11:47:22;;;;;;;7.00;6.43;;;;;;;;;;5027206;28;20206;-65
2023/05/04 11:49:49;;;;;;;7.32;6.03;;;;;;;;;;5028064;28;20236;-65
2023/05/04 11:52:24;;;;;;;7.10;6.40;;;;;;;;;;5023981;28;20203;-64
2023/05/04 11:54:58;;;;;;;6.57;5.95;;;;;;;;;;5020907;28;20276;-65
2023/05/04 11:57:26;;;;;;;6.95;6.25;;;;;;;;;;5025609;28;20206;-64
2023/05/04 11:59:53;;;;;;;7.80;7.10;;;;;;;;;;5019723;28;20724;-65
2023/05/04 12:02:20;;;;;;;7.93;7.15;;;;;;;;;;5029188;28;20290;-65
2023/05/04 12:04:48;;;;;;;7.43;6.72;;;;;;;;;;5021876;28;20203;-64
2023/05/04 12:07:15;;;;;;;6.78;6.18;;;;;;;;;;5022790;28;20692;-66
2023/05/04 12:09:44;;;;;;;7.70;7.00;;;;;;;;;;5022558;28;20203;-66
2023/05/04 12:12:12;;;;;;;7.25;6.57;;;;;;;;;;5020207;28;20655;-65
2023/05/04 12:14:50;;;;;;;6.90;6.40;;;;;;;;;;5026530;28;20556;-65
2023/05/04 12:17:19;;;;;;;7.50;6.85;;;;;;;;;;5017352;28;20303;-64
2023/05/04 12:19:47;;;;;;;7.15;6.47;;;;;;;;;;5026158;28;20227;-64
2023/05/04 12:22:14;;;;;;;7.50;6.47;;;;;;;;;;5023259;28;20254;-65
2023/05/04 12:24:42;;;;;;;6.93;6.22;;;;;;;;;;5023706;28;20231;-65
2023/05/04 12:27:13;;;;;;;7.45;6.38;;;;;;;;;;5024944;28;20734;-64
2023/05/04 12:29:41;;;;;;;5.60;5.13;;;;;;;;;;5030253;28;20214;-64
2023/05/04 12:32:08;;;;;;;5.90;5.40;;;;;;;;;;5027758;28;20219;-64
2023/05/04 12:34:37;;;;;;;6.75;6.03;;;;;;;;;;5028096;28;20206;-64
2023/05/04 12:37:05;;;;;;;6.57;5.97;;;;;;;;;;5024547;28;20225;-66
2023/05/04 12:39:33;;;;;;;5.78;5.28;;;;;;;;;;5022477;28;20555;-65
2023/05/04 12:42:00;;;;;;;6.40;5.78;;;;;;;;;;5024045;28;20207;-64
2023/05/04 12:44:27;;;;;;;6.10;5.50;;;;;;;;;;5010691;28;20235;-64
2023/05/04 12:46:55;;;;;;;5.97;5.47;;;;;;;;;;5021300;28;20227;-64
2023/05/04 12:49:22;;;;;;;5.43;4.93;;;;;;;;;;5015934;28;20297;-66
2023/05/04 12:51:51;;;;;;;5.20;4.80;;;;;;;;;;5027829;28;20253;-66
2023/05/04 12:54:19;;;;;;;6.32;5.45;;;;;;;;;;5018454;28;20289;-64
2023/05/04 12:56:47;;;;;;;6.25;5.75;;;;;;;;;;5021920;28;20280;-65
2023/05/04 12:59:15;;;;;;;5.82;5.32;;;;;;;;;;5027605;28;20734;-65
2023/05/04 13:01:42;;;;;;;4.40;4.10;;;;;;;;;;5023163;28;20300;-66
2023/05/04 13:04:11;;;;;;;5.50;5.10;;;;;;;;;;5028931;28;20233;-64
2023/05/04 13:06:39;;;;;;;5.40;4.90;;;;;;;;;;5022572;28;20780;-65
2023/05/04 13:09:06;;;;;;;5.60;5.13;;;;;;;;;;5023994;28;20211;-64
2023/05/04 13:11:34;;;;;;;4.90;4.00;;;;;;;;;;5027512;28;20206;-66
2023/05/04 13:14:01;;;;;;;5.00;4.60;;;;;;;;;;5026943;28;20244;-68
2023/05/04 13:16:29;;;;;;;5.30;4.80;;;;;;;;;;5027046;28;20226;-66
2023/05/04 13:18:58;;;;;;;6.85;5.70;;;;;;;;;;5025928;28;20559;-64
2023/05/04 13:21:26;;;;;;;6.10;5.50;;;;;;;;;;5027280;28;20225;-64
2023/05/04 13:23:53;;;;;;;6.00;5.40;;;;;;;;;;5027327;28;20803;-66
2023/05/04 13:26:21;;;;;;;5.22;4.72;;;;;;;;;;5023381;28;20261;-64
2023/05/04 13:28:50;;;;;;;7.18;5.07;;;;;;;;;;5020673;28;20195;-64
2023/05/04 13:31:18;;;;;;;6.25;5.75;;;;;;;;;;5021666;28;20210;-65
2023/05/04 13:33:46;;;;;;;5.38;4.72;;;;;;;;;;5023543;28;20214;-64
2023/05/04 13:36:13;;;;;;;5.90;4.93;;;;;;;;;;5024002;28;20239;-65
2023/05/04 13:38:41;;;;;;;6.72;4.50;;;;;;;;;;5025559;28;20207;-66
2023/05/04 13:41:08;;;;;;;4.90;4.50;;;;;;;;;;5029888;28;20230;-67
2023/05/04 13:43:36;;;;;;;4.38;3.97;;;;;;;;;;5022980;28;20199;-65
2023/05/04 13:46:03;;;;;;;4.25;3.88;;;;;;;;;;5021780;28;20445;-65
2023/05/04 13:48:33;;;;;;;4.60;4.20;;;;;;;;;;5025233;28;20230;-65
2023/05/04 13:51:02;;;;;;;4.38;4.03;;;;;;;;;;5018961;28;20341;-64
2023/05/04 13:53:30;;;;;;;3.95;3.65;;;;;;;;;;5021728;28;20219;-65
2023/05/04 13:55:57;;;;;;;3.88;3.50;;;;;;;;;;5023940;28;20233;-67
2023/05/04 13:58:25;;;;;;;3.70;3.40;;;;;;;;;;5020933;28;20264;-65
2023/05/04 14:00:55;;;;;;;4.85;3.90;;;;;;;;;;5014592;28;20961;-68
2023/05/04 14:03:22;;;;;;;4.30;4.00;;;;;;;;;;5026417;28;20202;-68
2023/05/04 14:05:51;;;;;;;5.72;4.15;;;;;;;;;;5021797;28;20258;-66
2023/05/04 14:08:19;;;;;;;3.88;3.58;;;;;;;;;;5026367;28;20234;-65
2023/05/04 14:10:46;;;;;;;5.32;3.42;;;;;;;;;;5012980;28;20634;-64
2023/05/04 14:13:13;;;;;;;5.63;3.47;;;;;;;;;;5027553;28;20205;-63
2023/05/04 14:15:41;;;;;;;4.18;3.78;;;;;;;;;;5020275;28;20223;-63
2023/05/04 14:18:09;;;;;;;4.05;2.97;;;;;;;;;;5017305;28;20231;-64
2023/05/04 14:20:37;;;;;;;3.35;3.13;;;;;;;;;;5041720;28;20234;-65
2023/05/04 14:23:04;;;;;;;3.40;3.10;;;;;;;;;;5040760;28;20242;-66
2023/05/04 14:25:31;;;;;;;4.00;3.42;;;;;;;;;;5029192;28;20306;-64
2023/05/04 14:27:59;;;;;;;3.72;3.35;;;;;;;;;;5028306;28;20242;-63
2023/05/04 14:30:26;;;;;;;4.32;3.92;;;;;;;;;;5017357;28;20214;-65
2023/05/04 14:32:54;;;;;;;4.28;3.97;;;;;;;;;;5029365;28;20789;-64
2023/05/04 14:35:23;;;;;;;4.57;3.92;;;;;;;;;;5028789;28;20231;-64
2023/05/04 14:37:52;;;;;;;3.70;3.50;;;;;;;;;;5029377;28;20206;-65
2023/05/04 14:40:19;;;;;;;3.80;3.50;;;;;;;;;;5026851;28;20824;-64